• Join FlightAware (Why Join?)
  • Login
  • US Flag 
12:09AM EST


 

Airport Tracker/Info


-or-


 

Live Flight TrackerFlight Track Log ✈ BJS339 ✈ 05-Jun-2014 ✈ KBOS - KESN

Flight Track Log - Related Links

Times and Time Zones

All times are in EDT time to prevent confusion due to time zone crossing. See the BJS339 flight status page for this flight to view local times or setup timezone preferences in your user account.

Time Position Orientation Groundspeed Altitude Reporting Facility
EDT Latitude Longitude Course Direction KTS MPH feet Rate Location/Type
02:31PM 42.3667 -70.9333 71° East 202 232 2,200  Level KA90
02:32PM 42.3833 -70.8667 71° East 206 237 4,500 1,500 Climbing KA90
02:33PM 42.3894 -70.8072 82° East 208 239 5,100 1,200 Climbing Boston Center
02:34PM 42.3597 -70.7300 117° Southeast 239 275 6,800 1,800 Climbing Boston Center
02:35PM 42.2758 -70.7539 192° South 274 315 8,800 1,800 Climbing Boston Center
02:36PM 42.2497 -70.8567 251° West 279 321 10,600 1,680 Climbing Boston Center
02:37PM 42.2308 -70.9592 256° West 281 323 12,300 1,620 Climbing Boston Center
02:38PM 42.2133 -71.0686 258° West 300 345 14,000 1,680 Climbing Boston Center
02:39PM 42.1922 -71.1986 258° West 327 376 15,800 1,680 Climbing Boston Center
02:40PM 42.1722 -71.3219 258° West 336 387 17,500 1,680 Climbing Boston Center
02:41PM 42.1533 -71.4392 258° West 344 396 19,300 1,620 Climbing Boston Center
02:42PM 42.1186 -71.5575 248° West 344 396 20,900 1,620 Climbing Boston Center
02:43PM 42.0742 -71.6706 242° Southwest 344 396 22,700 1,260 Climbing Boston Center
02:44PM 42.0319 -71.7869 244° Southwest 347 399 23,600 1,200 Climbing Boston Center
02:45PM 41.9719 -71.9256 240° Southwest 357 411 25,200 1,260 Climbing Boston Center
02:46PM 41.9233 -72.0439 241° Southwest 360 414 26,200 1,020 Climbing Boston Center
02:47PM 41.8753 -72.1617 241° Southwest 360 414 27,300 840 Climbing Boston Center
02:48PM 41.8258 -72.2825 241° Southwest 366 421 28,000 1,020 Climbing Boston Center
02:49PM 41.7756 -72.4033 241° Southwest 368 423 29,400 1,260 Climbing Boston Center
02:50PM 41.7244 -72.5278 241° Southwest 377 434 30,600 1,140 Climbing Boston Center
02:52PM 41.6722 -72.6533 241° Southwest 385 443 31,800 660 Climbing Boston Center
02:53PM 41.6186 -72.7819 241° Southwest 394 453 32,000 60 Climbing Boston Center
02:54PM 41.5628 -72.9156 241° Southwest 406 467 32,000  Level Boston Center
02:55PM 41.5017 -73.0625 241° Southwest 412 474 32,000  Level Boston Center
02:56PM 41.4450 -73.1961 241° Southwest 413 475 32,000  Level Boston Center
02:57PM 41.3894 -73.3278 241° Southwest 414 476 32,000  Level Boston Center
02:58PM 41.3200 -73.4889 240° Southwest 414 476 32,000  Level Boston Center
03:00PM 41.1872 -73.7367 235° Southwest 415 478 32,000  Level Boston Center
03:01PM 41.1167 -73.8592 233° Southwest 417 480 32,000  Level Boston Center
03:02PM 41.0408 -73.9869 232° Southwest 430 495 32,000  Level New York Center
03:03PM 40.9708 -74.1075 232° Southwest 430 495 32,000  Level New York Center
03:04PM 40.9031 -74.2139 230° Southwest 430 495 32,000  Level New York Center
03:05PM 40.8331 -74.3308 232° Southwest 430 495 32,000 -900 Level New York Center
03:06PM 40.7561 -74.4556 231° Southwest 430 495 30,200 -2,040 Descending New York Center
03:07PM 40.6836 -74.5750 231° Southwest 430 495 28,000 -1,620 Descending New York Center
03:08PM 40.6131 -74.6939 232° Southwest 430 495 27,100 -900 Descending New York Center
03:09PM 40.5364 -74.8097 229° Southwest 430 495 26,200 -900 Descending New York Center
03:10PM 40.4594 -74.9197 227° Southwest 419 482 25,400 -960 Descending New York Center
03:11PM 40.3850 -75.0217 226° Southwest 402 463 24,400 -1,080 Descending New York Center
03:12PM 40.3169 -75.1181 227° Southwest 387 445 23,300 -1,140 Descending New York Center
03:13PM 40.2689 -75.2322 241° Southwest 376 433 22,200 -1,140 Descending New York Center
03:14PM 40.2536 -75.3561 261° West 347 399 21,100 -1,140 Descending New York Center
03:15PM 40.1775 -75.4356 219° Southwest 338 389 20,000 -1,080 Descending New York Center
03:16PM 40.0825 -75.5186 214° Southwest 355 409 19,000 -540 Descending New York Center
03:17PM 40.0003 -75.5917 214° Southwest 368 423 19,000 -300 Level New York Center
03:18PM 39.9200 -75.6700 217° Southwest 368 423 18,500 -960 Descending New York Center
03:19PM 39.8636 -75.7742 235° Southwest 362 417 17,100 -1,320 Descending New York Center
03:20PM 39.7833 -75.9333 237° Southwest 339 390 15,300 -1,200 Descending Potomac TRACON
03:21PM 39.7333 -76.0333 237° Southwest 304 350 14,200 -1,140 Descending Potomac TRACON
03:22PM 39.6833 -76.1167 232° Southwest 289 333 13,100 -1,140 Descending Potomac TRACON
03:23PM 39.6500 -76.2000 243° Southwest 275 316 12,000 -1,140 Descending Potomac TRACON
03:24PM 39.5667 -76.2167 189° South 307 353 10,800 -1,020 Descending Potomac TRACON
03:25PM 39.5333 -76.1333 117° Southeast 323 372 10,000 -480 Descending Potomac TRACON
03:26PM 39.5000 -76.0167 110° East 319 367 10,000  Level Potomac TRACON
03:27PM 39.4667 -75.9167 113° Southeast 315 362 10,000  Level Potomac TRACON
03:28PM 39.4000 -75.8667 150° Southeast 298 343 10,000 -540 Level Potomac TRACON
03:29PM 39.3167 -75.9000 197° South 286 329 8,900 -1,560 Descending Potomac TRACON
03:30PM 39.2500 -75.9000 180° South 278 320 7,100 -1,860 Descending Potomac TRACON
03:31PM 39.1833 -75.9167 191° South 265 305 5,400 -1,620 Descending Potomac TRACON
03:32PM 39.1000 -75.9333 189° South 259 298 3,900 -1,500 Descending Potomac TRACON
03:33PM 39.0333 -75.9333 180° South 236 272 2,400 -960 Descending Potomac TRACON
03:34PM 38.9833 -75.9500 195° South 228 262 2,000 -240 Descending Potomac TRACON
03:35PM 38.9333 -75.9667 195° South 206 237 2,000 -120 Level Potomac TRACON
03:36PM 38.8833 -76.0000 207° Southwest 193 222 1,800 -600 Descending Potomac TRACON
03:37PM 38.8500 -76.0333 218° Southwest 159 183 800 -960 Descending Potomac TRACON
03:40PM 38.8000 -76.0667 204° Southwest  Level FlightAware Approximate
03:47PM 38.8042 -76.0690 336° Northwest  Level Estimated
03:48PM 38.8000 -76.0667 204° Southwest  Level FlightAware Approximate
03:49PM 38.8042 -76.0690 336° Northwest  Level Estimated
03:50PM 38.8000 -76.0667 204° Southwest  Level FlightAware Approximate
03:51PM 38.8042 -76.0690 336° Northwest  Level Estimated
03:52PM 38.8000 -76.0667 204° Southwest  Level FlightAware Approximate
03:53PM 38.8042 -76.0690 336° Northwest  Level Estimated
03:54PM 38.8000 -76.0667 204° Southwest  Level FlightAware Approximate